createdAt,value
2019-01-24T00:00:01.058Z,113.35
2019-01-24T00:02:29.788Z,89.70
2019-01-24T00:04:58.449Z,92.97
2019-01-24T00:07:27.123Z,89.67
2019-01-24T00:09:56.075Z,74.80
2019-01-24T00:12:24.356Z,85.75
2019-01-24T00:14:53.074Z,79.72
2019-01-24T00:17:21.746Z,85.70
2019-01-24T00:19:50.398Z,99.97
2019-01-24T00:22:19.066Z,98.42
2019-01-24T00:24:47.788Z,74.92
2019-01-24T00:27:16.505Z,73.70
2019-01-24T00:29:45.167Z,91.08
2019-01-24T00:32:13.831Z,86.97
2019-01-24T00:34:42.111Z,79.97
2019-01-24T00:37:10.765Z,73.75
2019-01-24T00:39:39.529Z,77.80
2019-01-24T00:42:08.218Z,78.78
2019-01-24T00:44:37.169Z,72.72
2019-01-24T00:47:05.813Z,83.37
2019-01-24T00:49:34.713Z,74.77
2019-01-24T00:52:03.466Z,81.97
2019-01-24T00:54:31.753Z,55.25
2019-01-24T00:57:00.413Z,84.65
2019-01-24T00:59:29.092Z,89.85
2019-01-24T01:01:57.811Z,72.75
2019-01-24T01:04:29.772Z,73.95
2019-01-24T01:06:56.874Z,79.32
2019-01-24T01:09:25.613Z,74.32
2019-01-24T01:11:54.272Z,70.35
2019-01-24T01:14:22.951Z,75.67
2019-01-24T01:16:51.221Z,68.70
2019-01-24T01:19:19.880Z,70.87
2019-01-24T01:21:48.528Z,69.90
2019-01-24T01:24:17.184Z,67.37
2019-01-24T01:26:46.280Z,72.95
2019-01-24T01:29:14.951Z,73.55
2019-01-24T01:31:43.634Z,73.90
2019-01-24T01:34:12.340Z,65.08
2019-01-24T01:36:40.865Z,57.35
2019-01-24T01:39:10.201Z,69.03
2019-01-24T01:41:38.849Z,97.45
2019-01-24T01:44:07.494Z,64.85
2019-01-24T01:46:36.178Z,66.28
2019-01-24T01:49:05.109Z,61.02
2019-01-24T01:51:33.864Z,56.63
2019-01-24T01:54:02.535Z,56.02
2019-01-24T01:56:31.524Z,58.78
2019-01-24T01:58:59.807Z,57.20
2019-01-24T02:01:28.521Z,68.22
2019-01-24T02:03:57.202Z,64.00
2019-01-24T02:06:25.911Z,62.67
2019-01-24T02:08:54.698Z,69.20
2019-01-24T02:11:23.624Z,62.48
2019-01-24T02:13:52.543Z,57.33
2019-01-24T02:16:21.392Z,61.05
2019-01-24T02:18:50.236Z,57.93
2019-01-24T02:21:18.525Z,64.10
2019-01-24T02:23:47.174Z,62.30
2019-01-24T02:26:15.856Z,55.23
2019-01-24T02:28:44.533Z,60.70
2019-01-24T02:31:13.211Z,73.28
2019-01-24T02:33:41.863Z,69.27
2019-01-24T02:36:10.544Z,55.67
2019-01-24T02:38:39.204Z,62.35
2019-01-24T02:41:07.533Z,61.37
2019-01-24T02:43:36.209Z,60.38
2019-01-24T02:46:04.919Z,66.60
2019-01-24T02:48:33.611Z,68.87
2019-01-24T02:51:02.289Z,62.90
2019-01-24T02:53:30.939Z,60.58
2019-01-24T02:55:59.591Z,74.05
2019-01-24T02:58:28.309Z,64.12
2019-01-24T03:00:56.961Z,56.53
2019-01-24T03:03:25.588Z,65.62
2019-01-24T03:05:54.492Z,63.58
2019-01-24T03:08:23.297Z,62.43
2019-01-24T03:10:51.941Z,64.42
2019-01-24T03:13:20.654Z,64.45
2019-01-24T03:15:49.329Z,55.90
2019-01-24T03:18:17.996Z,71.87
2019-01-24T03:20:46.657Z,52.38
2019-01-24T03:23:15.441Z,49.15
2019-01-24T03:25:43.726Z,56.37
2019-01-24T03:28:12.398Z,63.48
2019-01-24T03:30:41.086Z,49.33
2019-01-24T03:33:09.801Z,69.58
2019-01-24T03:35:38.661Z,58.63
2019-01-24T03:38:07.342Z,65.03
2019-01-24T03:40:35.998Z,55.78
2019-01-24T03:43:04.640Z,55.70
2019-01-24T03:45:33.001Z,49.08
2019-01-24T03:48:01.663Z,52.75
2019-01-24T03:50:30.325Z,59.08
2019-01-24T03:52:58.983Z,55.03
2019-01-24T03:55:27.646Z,55.80
2019-01-24T03:57:56.346Z,56.28
2019-01-24T04:00:25.284Z,59.67
2019-01-24T04:02:54.144Z,62.95
2019-01-24T04:05:22.905Z,48.90
2019-01-24T04:07:51.292Z,51.02
2019-01-24T04:10:20.983Z,64.30
2019-01-24T04:12:49.765Z,51.73
2019-01-24T04:15:23.365Z,55.55
2019-01-24T04:17:52.128Z,44.05
2019-01-24T04:20:21.155Z,52.33
2019-01-24T04:22:49.999Z,62.35
2019-01-24T04:25:18.669Z,55.83
2019-01-24T04:27:47.462Z,52.25
2019-01-24T04:30:16.861Z,48.40
2019-01-24T04:32:45.532Z,91.50
2019-01-24T04:35:19.657Z,96.32
2019-01-24T04:37:45.014Z,68.90
2019-01-24T04:40:15.249Z,57.67
2019-01-24T04:42:43.996Z,58.75
2019-01-24T04:45:13.947Z,55.85
2019-01-24T04:47:42.639Z,51.70
2019-01-24T04:50:13.022Z,48.95
2019-01-24T04:52:41.349Z,42.10
2019-01-24T04:55:11.515Z,58.28
2019-01-24T04:57:40.165Z,58.63
2019-01-24T05:00:17.530Z,57.78
2019-01-24T05:02:46.184Z,53.00
2019-01-24T05:05:14.923Z,48.78
2019-01-24T05:07:43.569Z,51.63
2019-01-24T05:10:12.222Z,45.55
2019-01-24T05:12:40.964Z,49.03
2019-01-24T05:15:09.615Z,47.05
2019-01-24T05:17:37.893Z,60.10
2019-01-24T05:20:07.484Z,54.00
2019-01-24T05:22:36.138Z,46.77
2019-01-24T05:25:06.385Z,55.10
2019-01-24T05:27:35.033Z,60.15
2019-01-24T05:30:04.570Z,62.03
2019-01-24T05:32:33.292Z,56.80
2019-01-24T05:35:02.037Z,49.35
2019-01-24T05:37:30.809Z,40.40
2019-01-24T05:39:59.089Z,48.90
2019-01-24T05:42:27.753Z,58.25
2019-01-24T05:44:56.407Z,52.65
2019-01-24T05:47:25.146Z,51.48
2019-01-24T05:49:53.800Z,52.45
2019-01-24T05:52:22.493Z,58.02
2019-01-24T05:54:51.164Z,43.52
2019-01-24T05:57:19.876Z,48.13
2019-01-24T05:59:48.168Z,33.65
2019-01-24T06:02:16.862Z,52.83
2019-01-24T06:04:45.786Z,49.35
2019-01-24T06:07:14.448Z,51.42
2019-01-24T06:09:43.110Z,48.00
2019-01-24T06:12:11.772Z,57.00
2019-01-24T06:14:40.438Z,48.98
2019-01-24T06:17:09.087Z,39.73
2019-01-24T06:19:37.753Z,47.93
2019-01-24T06:22:06.033Z,47.05
2019-01-24T06:24:34.760Z,56.30
2019-01-24T06:27:03.424Z,49.53
2019-01-24T06:29:32.117Z,52.38
2019-01-24T06:32:00.763Z,46.90
2019-01-24T06:34:29.423Z,52.70
2019-01-24T06:36:58.069Z,52.95
2019-01-24T06:39:26.716Z,52.17
2019-01-24T06:41:55.001Z,39.33
2019-01-24T06:44:24.005Z,48.98
2019-01-24T06:46:52.954Z,47.67
2019-01-24T06:49:21.705Z,58.33
2019-01-24T06:51:50.460Z,52.98
2019-01-24T06:54:19.104Z,49.08
2019-01-24T06:56:48.008Z,58.35
2019-01-24T06:59:16.952Z,46.48
2019-01-24T07:01:45.669Z,43.08
2019-01-24T07:04:14.258Z,47.88
2019-01-24T07:06:42.946Z,50.15
2019-01-24T07:09:11.615Z,53.23
2019-01-24T07:11:40.586Z,49.50
2019-01-24T07:14:09.440Z,46.63
2019-01-24T07:16:38.357Z,57.55
2019-01-24T07:19:07.119Z,48.08
2019-01-24T07:21:35.798Z,56.85
2019-01-24T07:24:04.499Z,44.35
2019-01-24T07:26:32.801Z,42.27
2019-01-24T07:29:01.549Z,56.90
2019-01-24T07:31:30.212Z,52.93
2019-01-24T07:33:58.863Z,50.43
2019-01-24T07:36:27.773Z,52.23
2019-01-24T07:38:56.411Z,57.78
2019-01-24T07:41:25.068Z,45.15
2019-01-24T07:43:53.773Z,46.85
2019-01-24T07:46:22.429Z,41.83
2019-01-24T07:48:50.716Z,44.55
2019-01-24T07:51:19.402Z,46.48
2019-01-24T07:53:48.052Z,48.68
2019-01-24T07:56:16.785Z,48.90
2019-01-24T07:58:45.753Z,43.40
2019-01-24T08:01:14.405Z,43.58
2019-01-24T08:03:43.056Z,42.13
2019-01-24T08:06:11.731Z,36.65
2019-01-24T08:08:40.261Z,53.25
2019-01-24T08:11:08.914Z,49.13
2019-01-24T08:13:37.581Z,46.18
2019-01-24T08:16:06.238Z,40.15
2019-01-24T08:18:34.955Z,46.73
2019-01-24T08:21:03.620Z,62.83
2019-01-24T08:23:32.274Z,46.92
2019-01-24T08:26:01.022Z,46.55
2019-01-24T08:28:29.686Z,34.08
2019-01-24T08:30:57.962Z,49.83
2019-01-24T08:33:26.624Z,92.45
2019-01-24T08:35:55.349Z,54.15
2019-01-24T08:38:24.011Z,39.83
2019-01-24T08:40:52.684Z,39.25
2019-01-24T08:43:21.345Z,50.30
2019-01-24T08:45:49.994Z,41.42
2019-01-24T08:48:18.670Z,36.50
2019-01-24T08:50:47.319Z,42.67
2019-01-24T08:53:15.704Z,38.92
2019-01-24T08:55:44.686Z,43.50
2019-01-24T08:58:13.424Z,45.28
2019-01-24T09:00:42.086Z,41.13
2019-01-24T09:03:12.469Z,44.95
2019-01-24T09:05:41.214Z,42.78
2019-01-24T09:08:09.871Z,50.38
2019-01-24T09:10:39.343Z,34.75
2019-01-24T09:13:08.011Z,55.35
2019-01-24T09:15:37.128Z,38.15
2019-01-24T09:18:06.412Z,43.33
2019-01-24T09:20:35.082Z,62.93
2019-01-24T09:23:03.805Z,42.15
2019-01-24T09:25:32.753Z,43.85
2019-01-24T09:28:01.428Z,44.60
2019-01-24T09:30:30.112Z,48.42
2019-01-24T09:32:58.870Z,41.30
2019-01-24T09:35:27.493Z,40.30
2019-01-24T09:37:56.132Z,60.48
2019-01-24T09:40:24.806Z,46.63
2019-01-24T09:42:53.544Z,44.48
2019-01-24T09:45:24.021Z,45.65
2019-01-24T09:47:53.291Z,39.20
2019-01-24T09:50:22.907Z,47.27
2019-01-24T09:52:51.637Z,43.78
2019-01-24T09:55:20.360Z,43.55
2019-01-24T09:57:48.650Z,37.80
2019-01-24T10:00:22.503Z,42.67
2019-01-24T10:02:51.140Z,31.12
2019-01-24T10:05:19.813Z,50.58
2019-01-24T10:07:48.469Z,40.20
2019-01-24T10:10:19.171Z,38.53
2019-01-24T10:12:47.815Z,45.90
2019-01-24T10:15:16.993Z,45.85
2019-01-24T10:17:45.654Z,40.20
2019-01-24T10:20:14.679Z,42.13
2019-01-24T10:22:43.353Z,40.92
2019-01-24T10:25:26.288Z,31.62
2019-01-24T10:27:54.940Z,46.08
2019-01-24T10:30:23.733Z,33.63
2019-01-24T10:32:52.721Z,41.40
2019-01-24T10:35:21.391Z,39.35
2019-01-24T10:37:50.062Z,39.27
2019-01-24T10:40:20.930Z,42.00
2019-01-24T10:42:49.944Z,46.55
2019-01-24T10:45:18.600Z,41.80
2019-01-24T10:47:47.277Z,35.00
2019-01-24T10:50:16.777Z,40.30
2019-01-24T10:52:45.438Z,38.20
2019-01-24T10:55:16.392Z,31.97
2019-01-24T10:57:45.235Z,31.77
2019-01-24T11:00:17.115Z,41.70
2019-01-24T11:02:45.782Z,27.17
2019-01-24T11:05:15.336Z,29.67
2019-01-24T11:07:43.620Z,28.60
2019-01-24T11:10:13.029Z,29.20
2019-01-24T11:12:41.700Z,29.80
2019-01-24T11:15:13.120Z,29.97
2019-01-24T11:17:41.806Z,27.97
2019-01-24T11:20:12.043Z,32.17
2019-01-24T11:22:40.726Z,28.97
2019-01-24T11:25:12.102Z,29.53
2019-01-24T11:27:40.754Z,25.53
2019-01-24T11:30:09.834Z,33.53
2019-01-24T11:32:38.489Z,33.60
2019-01-24T11:35:09.844Z,41.80
2019-01-24T11:37:38.492Z,31.97
2019-01-24T11:40:09.222Z,31.37
2019-01-24T11:42:37.873Z,30.80
2019-01-24T11:45:08.242Z,32.13
2019-01-24T11:47:36.957Z,31.53
2019-01-24T11:50:08.065Z,31.60
2019-01-24T11:52:36.385Z,20.27
2019-01-24T11:55:05.878Z,27.63
2019-01-24T11:57:34.608Z,31.33
2019-01-24T12:00:03.361Z,26.23
2019-01-24T12:02:32.021Z,28.07
2019-01-24T12:05:00.757Z,28.17
2019-01-24T12:07:29.429Z,31.27
2019-01-24T12:09:58.094Z,30.03
2019-01-24T12:12:26.808Z,19.30
2019-01-24T12:14:55.080Z,25.02
2019-01-24T12:17:24.808Z,22.10
2019-01-24T12:19:54.135Z,22.87
2019-01-24T12:22:22.792Z,21.30
2019-01-24T12:24:51.458Z,20.40
2019-01-24T12:27:20.387Z,23.80
2019-01-24T12:29:49.040Z,24.82
2019-01-24T12:32:17.785Z,40.73
2019-01-24T12:34:46.428Z,22.58
2019-01-24T12:37:14.703Z,17.42
2019-01-24T12:39:43.375Z,23.50
2019-01-24T12:42:12.367Z,19.35
2019-01-24T12:44:41.029Z,33.80
2019-01-24T12:47:09.703Z,40.23
2019-01-24T12:49:38.719Z,57.98
2019-01-24T12:52:07.365Z,27.87
2019-01-24T12:54:36.026Z,43.63
2019-01-24T12:57:04.929Z,36.13
2019-01-24T12:59:33.223Z,34.75
2019-01-24T13:02:01.964Z,22.35
2019-01-24T13:04:30.625Z,20.97
2019-01-24T13:06:59.282Z,27.75
2019-01-24T13:09:28.026Z,20.05
2019-01-24T13:11:56.687Z,23.92
2019-01-24T13:14:25.336Z,21.48
2019-01-24T13:16:54.244Z,23.35
2019-01-24T13:19:22.534Z,20.75
2019-01-24T13:21:51.185Z,41.90
2019-01-24T13:24:19.941Z,23.40
2019-01-24T13:26:48.610Z,46.28
2019-01-24T13:29:17.276Z,193.60
2019-01-24T13:31:45.928Z,271.30
2019-01-24T13:34:14.592Z,193.57
2019-01-24T13:36:43.643Z,499.08
2019-01-24T13:39:12.356Z,81.63
2019-01-24T13:41:42.509Z,34.60
2019-01-24T13:44:11.081Z,34.20
2019-01-24T13:46:40.638Z,32.63
2019-01-24T13:49:09.347Z,21.10
2019-01-24T13:51:38.005Z,25.72
2019-01-24T13:54:06.679Z,23.52
2019-01-24T13:56:35.330Z,28.87
2019-01-24T13:59:03.977Z,46.50
2019-01-24T14:01:32.680Z,34.58
2019-01-24T14:04:07.620Z,23.75
2019-01-24T14:06:36.273Z,29.27
2019-01-24T14:09:08.710Z,24.72
2019-01-24T14:11:37.448Z,45.58
2019-01-24T14:14:06.488Z,33.55
2019-01-24T14:16:35.153Z,31.68
2019-01-24T14:19:03.818Z,23.02
2019-01-24T14:21:32.481Z,23.92
2019-01-24T14:24:01.141Z,19.20
2019-01-24T14:26:29.441Z,23.07
2019-01-24T14:28:58.098Z,21.95
2019-01-24T14:31:26.745Z,27.77
2019-01-24T14:33:55.406Z,23.07
2019-01-24T14:36:25.467Z,25.25
2019-01-24T14:38:55.093Z,21.77
2019-01-24T14:41:23.741Z,24.43
2019-01-24T14:43:52.407Z,25.35
2019-01-24T14:46:21.586Z,24.63
2019-01-24T14:48:49.862Z,19.05
2019-01-24T14:51:18.553Z,23.07
2019-01-24T14:53:47.214Z,25.37
2019-01-24T14:56:15.963Z,22.27
2019-01-24T14:58:44.624Z,19.12
2019-01-24T15:01:16.134Z,35.83
2019-01-24T15:03:44.788Z,25.12
2019-01-24T15:06:13.462Z,21.40
2019-01-24T15:08:41.749Z,25.45
2019-01-24T15:11:10.397Z,22.37
2019-01-24T15:13:39.057Z,28.40
2019-01-24T15:16:07.720Z,22.22
2019-01-24T15:18:36.662Z,27.42
2019-01-24T15:21:05.342Z,23.98
2019-01-24T15:23:33.998Z,31.02
2019-01-24T15:26:02.672Z,28.47
2019-01-24T15:28:31.319Z,63.40
2019-01-24T15:30:59.707Z,23.98
2019-01-24T15:33:28.445Z,17.73
2019-01-24T15:35:57.110Z,17.05
2019-01-24T15:38:25.760Z,17.27
2019-01-24T15:40:54.420Z,19.87
2019-01-24T15:43:23.076Z,26.20
2019-01-24T15:45:51.741Z,35.60
2019-01-24T15:48:20.392Z,22.00
2019-01-24T15:50:49.099Z,18.37
2019-01-24T15:53:17.444Z,24.47
2019-01-24T15:55:46.436Z,33.63
2019-01-24T15:58:15.202Z,36.17
2019-01-24T16:00:43.866Z,42.83
2019-01-24T16:03:12.790Z,43.17
2019-01-24T16:05:41.444Z,43.50
2019-01-24T16:08:10.113Z,33.42
2019-01-24T16:10:38.816Z,59.95
2019-01-24T16:13:07.103Z,89.13
2019-01-24T16:15:36.770Z,217.93
2019-01-24T16:18:08.057Z,192.05
2019-01-24T16:20:36.712Z,52.27
2019-01-24T16:23:05.714Z,41.42
2019-01-24T16:25:34.401Z,42.20
2019-01-24T16:28:03.094Z,37.65
2019-01-24T16:30:32.587Z,62.25
2019-01-24T16:33:01.519Z,45.33
2019-01-24T16:35:29.942Z,29.92
2019-01-24T16:37:58.600Z,43.25
2019-01-24T16:40:27.743Z,42.45
2019-01-24T16:42:56.418Z,35.92
2019-01-24T16:45:26.720Z,39.03
2019-01-24T16:47:55.629Z,40.67
2019-01-24T16:50:24.757Z,30.72
2019-01-24T16:52:53.680Z,37.23
2019-01-24T16:55:22.342Z,36.55
2019-01-24T16:57:50.743Z,38.45
2019-01-24T17:01:16.235Z,38.15
2019-01-24T17:03:44.990Z,39.38
2019-01-24T17:06:13.520Z,59.67
2019-01-24T17:08:42.169Z,87.85
2019-01-24T17:11:10.807Z,56.65
2019-01-24T17:13:39.472Z,95.40
2019-01-24T17:16:08.125Z,59.70
2019-01-24T17:18:36.779Z,75.70
2019-01-24T17:21:05.569Z,152.10
2019-01-24T17:23:34.257Z,117.82
2019-01-24T17:26:03.922Z,69.62
2019-01-24T17:28:32.214Z,68.28
2019-01-24T17:31:00.941Z,75.35
2019-01-24T17:33:29.596Z,76.80
2019-01-24T17:35:58.304Z,87.22
2019-01-24T17:38:26.972Z,71.67
2019-01-24T17:40:55.638Z,84.75
2019-01-24T17:43:24.373Z,81.37
2019-01-24T17:45:53.273Z,83.20
2019-01-24T17:48:21.628Z,93.75
2019-01-24T17:50:50.364Z,87.60
2019-01-24T17:53:19.030Z,93.70
2019-01-24T17:55:47.687Z,110.37
2019-01-24T17:58:16.343Z,233.72
2019-01-24T18:00:52.837Z,122.53
2019-01-24T18:03:21.580Z,255.85
2019-01-24T18:05:50.590Z,221.28
2019-01-24T18:08:19.241Z,138.75
2019-01-24T18:10:47.890Z,235.08
2019-01-24T18:13:16.174Z,318.20
2019-01-24T18:15:44.869Z,144.70
2019-01-24T18:18:14.688Z,134.15
2019-01-24T18:20:43.896Z,147.10
2019-01-24T18:23:12.713Z,135.18
2019-01-24T18:25:41.453Z,131.55
2019-01-24T18:28:11.690Z,120.95
2019-01-24T18:30:40.530Z,134.32
2019-01-24T18:33:08.951Z,98.20
2019-01-24T18:35:37.626Z,127.27
2019-01-24T18:38:07.080Z,107.80
2019-01-24T18:40:35.796Z,109.90
2019-01-24T18:43:07.732Z,125.12
2019-01-24T18:45:43.036Z,119.25
2019-01-24T18:48:11.707Z,107.27
2019-01-24T18:50:40.476Z,115.30
2019-01-24T18:53:09.785Z,107.97
2019-01-24T18:55:38.444Z,95.25
2019-01-24T18:58:06.872Z,110.48
2019-01-24T19:00:41.452Z,105.12
2019-01-24T19:03:10.408Z,89.92
2019-01-24T19:05:40.435Z,98.03
2019-01-24T19:08:10.659Z,89.65
2019-01-24T19:10:39.556Z,114.03
2019-01-24T19:13:08.928Z,115.47
2019-01-24T19:15:38.849Z,104.75
2019-01-24T19:18:10.499Z,89.22
2019-01-24T19:20:38.801Z,110.25
2019-01-24T19:23:07.445Z,88.58
2019-01-24T19:25:36.189Z,101.53
2019-01-24T19:28:06.269Z,118.45
2019-01-24T19:30:35.130Z,127.47
2019-01-24T19:33:03.957Z,95.50
2019-01-24T19:35:32.800Z,121.33
2019-01-24T19:38:01.829Z,304.93
2019-01-24T19:40:30.480Z,121.72
2019-01-24T19:42:59.076Z,91.45
2019-01-24T19:45:27.851Z,123.58
2019-01-24T19:47:56.517Z,280.50
2019-01-24T19:50:27.621Z,100.38
2019-01-24T19:52:56.364Z,463.80
2019-01-24T19:55:25.058Z,116.12
2019-01-24T19:57:54.229Z,103.42
2019-01-24T20:00:24.677Z,109.12
2019-01-24T20:02:53.327Z,150.03
2019-01-24T20:05:21.733Z,100.58
2019-01-24T20:07:50.390Z,192.75
2019-01-24T20:10:20.803Z,220.48
2019-01-24T20:12:49.458Z,126.45
2019-01-24T20:15:20.222Z,92.90
2019-01-24T20:17:49.612Z,89.35
2019-01-24T20:20:18.910Z,97.05
2019-01-24T20:22:47.573Z,75.25
2019-01-24T20:25:17.823Z,79.80
2019-01-24T20:27:46.091Z,90.12
2019-01-24T20:30:17.451Z,102.22
2019-01-24T20:32:46.207Z,103.47
2019-01-24T20:35:23.214Z,91.65
2019-01-24T20:37:51.910Z,90.80
2019-01-24T20:40:21.258Z,97.57
2019-01-24T20:42:50.311Z,99.07
2019-01-24T20:45:18.978Z,119.80
2019-01-24T20:47:47.630Z,105.92
2019-01-24T20:50:15.922Z,95.25
2019-01-24T20:52:44.591Z,106.20
2019-01-24T20:55:13.299Z,109.85
2019-01-24T20:57:42.032Z,87.20
2019-01-24T21:00:13.972Z,117.10
2019-01-24T21:02:42.732Z,100.85
2019-01-24T21:05:11.988Z,96.08
2019-01-24T21:07:40.905Z,103.15
2019-01-24T21:10:12.404Z,90.83
2019-01-24T21:12:40.729Z,98.85
2019-01-24T21:15:10.687Z,98.35
2019-01-24T21:17:39.350Z,89.85
2019-01-24T21:20:10.489Z,102.92
2019-01-24T21:22:39.148Z,82.12
2019-01-24T21:25:11.706Z,109.57
2019-01-24T21:27:39.917Z,119.82
2019-01-24T21:30:12.314Z,97.42
2019-01-24T21:32:40.965Z,119.08
2019-01-24T21:35:09.694Z,96.40
2019-01-24T21:37:38.028Z,123.62
2019-01-24T21:40:07.879Z,97.20
2019-01-24T21:42:36.775Z,111.32
2019-01-24T21:45:06.297Z,95.00
2019-01-24T21:47:34.949Z,90.17
2019-01-24T21:50:03.866Z,87.45
2019-01-24T21:52:32.557Z,90.70
2019-01-24T21:55:01.459Z,99.52
2019-01-24T21:57:30.152Z,87.00
2019-01-24T21:59:58.425Z,96.10
2019-01-24T22:02:27.080Z,93.22
2019-01-24T22:04:55.813Z,174.15
2019-01-24T22:07:24.451Z,104.85
2019-01-24T22:09:53.126Z,117.82
2019-01-24T22:12:21.787Z,91.53
2019-01-24T22:14:50.452Z,92.37
2019-01-24T22:17:19.132Z,261.35
2019-01-24T22:19:47.510Z,186.80
2019-01-24T22:22:16.224Z,116.42
2019-01-24T22:24:44.882Z,125.38
2019-01-24T22:27:13.616Z,121.70
2019-01-24T22:29:42.260Z,107.72
2019-01-24T22:32:10.967Z,92.72
2019-01-24T22:34:39.617Z,85.55
2019-01-24T22:37:08.363Z,96.60
2019-01-24T22:39:37.012Z,98.45
2019-01-24T22:42:05.303Z,101.85
2019-01-24T22:44:34.271Z,90.55
2019-01-24T22:47:02.953Z,96.00
2019-01-24T22:49:31.621Z,97.92
2019-01-24T22:52:00.292Z,86.42
2019-01-24T22:54:29.033Z,90.85
2019-01-24T22:56:57.729Z,96.87
2019-01-24T22:59:26.456Z,86.55
2019-01-24T23:01:57.772Z,89.17
2019-01-24T23:04:26.555Z,83.03
2019-01-24T23:06:55.239Z,110.03
2019-01-24T23:09:23.896Z,100.25
2019-01-24T23:11:52.957Z,100.97
2019-01-24T23:14:21.949Z,121.50
2019-01-24T23:16:50.669Z,106.83
2019-01-24T23:19:19.390Z,94.50
2019-01-24T23:21:49.545Z,89.60
2019-01-24T23:24:17.994Z,82.70
2019-01-24T23:26:46.663Z,99.45
2019-01-24T23:29:15.340Z,83.82
2019-01-24T23:31:44.044Z,91.85
2019-01-24T23:34:12.713Z,78.85
2019-01-24T23:36:42.489Z,75.75
2019-01-24T23:39:11.281Z,81.97
2019-01-24T23:41:39.929Z,87.37
2019-01-24T23:44:11.119Z,71.40
2019-01-24T23:46:39.415Z,83.85
2019-01-24T23:49:08.096Z,78.72
2019-01-24T23:51:36.823Z,80.38
2019-01-24T23:54:05.661Z,77.42
2019-01-24T23:56:34.370Z,87.60
2019-01-24T23:59:03.057Z,97.00
